sensor_id;sensor_type;location;lat;lon;timestamp;pressure;altitude;pressure_sealevel;temperature;humidity
24306;BME280;12423;48.768;8.850;2023-01-30T00:00:42;97606.56;;;-3.76;100.00
24306;BME280;12423;48.768;8.850;2023-01-30T00:02:43;97607.69;;;-3.90;100.00
24306;BME280;12423;48.768;8.850;2023-01-30T00:04:44;97606.13;;;-3.98;100.00
24306;BME280;12423;48.768;8.850;2023-01-30T00:06:45;97597.56;;;-4.05;100.00
24306;BME280;12423;48.768;8.850;2023-01-30T00:08:46;97590.69;;;-4.09;100.00
24306;BME280;12423;48.768;8.850;2023-01-30T00:10:47;97582.88;;;-4.09;100.00
24306;BME280;12423;48.768;8.850;2023-01-30T00:12:48;97569.81;;;-4.09;100.00
24306;BME280;12423;48.768;8.850;2023-01-30T00:14:49;97566.09;;;-3.97;100.00
24306;BME280;12423;48.768;8.850;2023-01-30T00:16:50;97561.66;;;-3.92;100.00
24306;BME280;12423;48.768;8.850;2023-01-30T00:18:51;97559.94;;;-3.95;100.00
24306;BME280;12423;48.768;8.850;2023-01-30T00:21:00;97557.28;;;-3.92;100.00
24306;BME280;12423;48.768;8.850;2023-01-30T00:23:01;97560.81;;;-3.94;100.00
24306;BME280;12423;48.768;8.850;2023-01-30T00:25:03;97567.56;;;-3.84;100.00
24306;BME280;12423;48.768;8.850;2023-01-30T00:27:04;97563.34;;;-3.91;100.00
24306;BME280;12423;48.768;8.850;2023-01-30T00:29:05;97568.47;;;-3.86;100.00
24306;BME280;12423;48.768;8.850;2023-01-30T00:31:06;97565.09;;;-3.92;100.00
24306;BME280;12423;48.768;8.850;2023-01-30T00:33:08;97550.47;;;-3.99;100.00
24306;BME280;12423;48.768;8.850;2023-01-30T00:35:10;97550.41;;;-3.96;100.00
24306;BME280;12423;48.768;8.850;2023-01-30T00:37:11;97555.78;;;-4.03;100.00
24306;BME280;12423;48.768;8.850;2023-01-30T00:39:12;97547.88;;;-3.99;100.00
24306;BME280;12423;48.768;8.850;2023-01-30T00:41:13;97535.75;;;-4.03;100.00
24306;BME280;12423;48.768;8.850;2023-01-30T00:43:17;97540.00;;;-3.97;100.00
24306;BME280;12423;48.768;8.850;2023-01-30T00:45:40;97554.00;;;-4.03;100.00
24306;BME280;12423;48.768;8.850;2023-01-30T00:47:59;97567.25;;;-4.12;100.00
24306;BME280;12423;48.768;8.850;2023-01-30T00:50:00;97581.03;;;-4.04;100.00
24306;BME280;12423;48.768;8.850;2023-01-30T00:52:02;97577.41;;;-3.97;100.00
24306;BME280;12423;48.768;8.850;2023-01-30T00:54:03;97588.00;;;-4.06;100.00
24306;BME280;12423;48.768;8.850;2023-01-30T00:56:05;97591.72;;;-4.19;100.00
24306;BME280;12423;48.768;8.850;2023-01-30T00:58:06;97598.63;;;-4.15;100.00
24306;BME280;12423;48.768;8.850;2023-01-30T01:00:08;97619.47;;;-4.12;100.00
24306;BME280;12423;48.768;8.850;2023-01-30T01:02:09;97630.78;;;-4.15;100.00
24306;BME280;12423;48.768;8.850;2023-01-30T01:04:10;97638.06;;;-4.32;100.00
24306;BME280;12423;48.768;8.850;2023-01-30T01:06:11;97647.53;;;-4.27;100.00
24306;BME280;12423;48.768;8.850;2023-01-30T01:08:13;97641.16;;;-4.10;100.00
24306;BME280;12423;48.768;8.850;2023-01-30T01:10:14;97635.72;;;-4.49;100.00
24306;BME280;12423;48.768;8.850;2023-01-30T01:12:16;97635.91;;;-4.58;100.00
24306;BME280;12423;48.768;8.850;2023-01-30T01:14:17;97628.91;;;-4.56;100.00
24306;BME280;12423;48.768;8.850;2023-01-30T01:16:17;97623.31;;;-4.35;100.00
24306;BME280;12423;48.768;8.850;2023-01-30T01:18:19;97630.75;;;-4.12;100.00
24306;BME280;12423;48.768;8.850;2023-01-30T01:20:21;97633.91;;;-3.94;100.00
24306;BME280;12423;48.768;8.850;2023-01-30T01:22:21;97636.47;;;-3.93;100.00
24306;BME280;12423;48.768;8.850;2023-01-30T01:24:22;97639.88;;;-3.87;100.00
24306;BME280;12423;48.768;8.850;2023-01-30T01:26:24;97621.03;;;-4.03;100.00
24306;BME280;12423;48.768;8.850;2023-01-30T01:28:24;97617.81;;;-4.19;100.00
24306;BME280;12423;48.768;8.850;2023-01-30T01:30:25;97641.97;;;-4.08;100.00
24306;BME280;12423;48.768;8.850;2023-01-30T01:32:27;97641.97;;;-4.08;100.00
24306;BME280;12423;48.768;8.850;2023-01-30T01:34:27;97619.50;;;-4.15;100.00
24306;BME280;12423;48.768;8.850;2023-01-30T01:36:28;97611.78;;;-4.21;100.00
24306;BME280;12423;48.768;8.850;2023-01-30T01:38:29;97614.44;;;-4.24;100.00
24306;BME280;12423;48.768;8.850;2023-01-30T01:40:30;97624.78;;;-4.18;100.00
24306;BME280;12423;48.768;8.850;2023-01-30T01:42:50;97622.09;;;-4.14;100.00
24306;BME280;12423;48.768;8.850;2023-01-30T01:47:14;97614.34;;;-4.18;100.00
24306;BME280;12423;48.768;8.850;2023-01-30T01:49:29;97611.69;;;-4.17;100.00
24306;BME280;12423;48.768;8.850;2023-01-30T01:51:36;97615.22;;;-4.19;100.00
24306;BME280;12423;48.768;8.850;2023-01-30T01:53:49;97601.31;;;-4.20;100.00
24306;BME280;12423;48.768;8.850;2023-01-30T01:55:55;97588.41;;;-4.28;100.00
24306;BME280;12423;48.768;8.850;2023-01-30T01:58:06;97592.78;;;-4.30;100.00
24306;BME280;12423;48.768;8.850;2023-01-30T02:02:15;97623.28;;;-4.32;100.00
24306;BME280;12423;48.768;8.850;2023-01-30T02:04:16;97622.13;;;-4.17;100.00
24306;BME280;12423;48.768;8.850;2023-01-30T02:06:38;97621.41;;;-4.25;100.00
24306;BME280;12423;48.768;8.850;2023-01-30T02:08:44;97626.56;;;-4.20;100.00
24306;BME280;12423;48.768;8.850;2023-01-30T02:11:02;97609.50;;;-4.40;100.00
24306;BME280;12423;48.768;8.850;2023-01-30T02:13:04;97612.84;;;-4.32;100.00
24306;BME280;12423;48.768;8.850;2023-01-30T02:15:06;97615.38;;;-4.27;100.00
24306;BME280;12423;48.768;8.850;2023-01-30T02:17:07;97613.78;;;-4.37;100.00
24306;BME280;12423;48.768;8.850;2023-01-30T02:19:41;97588.53;;;-4.34;100.00
24306;BME280;12423;48.768;8.850;2023-01-30T02:34:08;97614.66;;;-4.37;100.00
24306;BME280;12423;48.768;8.850;2023-01-30T02:43:30;97569.94;;;-4.64;100.00
24306;BME280;12423;48.768;8.850;2023-01-30T02:45:37;97578.44;;;-4.54;100.00
24306;BME280;12423;48.768;8.850;2023-01-30T02:47:48;97588.19;;;-4.64;100.00
24306;BME280;12423;48.768;8.850;2023-01-30T02:50:18;97593.31;;;-4.60;100.00
24306;BME280;12423;48.768;8.850;2023-01-30T02:52:20;97582.56;;;-4.93;100.00
24306;BME280;12423;48.768;8.850;2023-01-30T02:54:22;97569.44;;;-4.89;100.00
24306;BME280;12423;48.768;8.850;2023-01-30T02:56:23;97568.63;;;-4.91;100.00
24306;BME280;12423;48.768;8.850;2023-01-30T02:58:28;97563.47;;;-4.94;100.00
24306;BME280;12423;48.768;8.850;2023-01-30T03:10:28;97517.25;;;-4.36;100.00
24306;BME280;12423;48.768;8.850;2023-01-30T03:14:59;97490.28;;;-3.93;100.00
24306;BME280;12423;48.768;8.850;2023-01-30T03:17:05;97458.91;;;-3.90;100.00
24306;BME280;12423;48.768;8.850;2023-01-30T03:19:11;97453.19;;;-3.68;100.00
24306;BME280;12423;48.768;8.850;2023-01-30T03:21:12;97449.91;;;-3.39;100.00
24306;BME280;12423;48.768;8.850;2023-01-30T03:23:13;97442.84;;;-3.35;100.00
24306;BME280;12423;48.768;8.850;2023-01-30T03:25:20;97435.78;;;-3.30;100.00
24306;BME280;12423;48.768;8.850;2023-01-30T03:27:22;97417.41;;;-3.27;100.00
24306;BME280;12423;48.768;8.850;2023-01-30T03:29:23;97401.66;;;-3.24;100.00
24306;BME280;12423;48.768;8.850;2023-01-30T03:31:24;97399.56;;;-3.09;100.00
24306;BME280;12423;48.768;8.850;2023-01-30T03:33:25;97403.78;;;-3.05;100.00
24306;BME280;12423;48.768;8.850;2023-01-30T03:35:28;97411.41;;;-2.96;100.00
24306;BME280;12423;48.768;8.850;2023-01-30T03:37:30;97398.13;;;-2.88;100.00
24306;BME280;12423;48.768;8.850;2023-01-30T03:39:31;97402.47;;;-2.89;100.00
24306;BME280;12423;48.768;8.850;2023-01-30T03:41:33;97407.63;;;-2.86;100.00
24306;BME280;12423;48.768;8.850;2023-01-30T03:43:35;97411.16;;;-2.87;100.00
24306;BME280;12423;48.768;8.850;2023-01-30T03:45:39;97416.88;;;-2.72;100.00
24306;BME280;12423;48.768;8.850;2023-01-30T03:47:41;97407.25;;;-2.70;100.00
24306;BME280;12423;48.768;8.850;2023-01-30T03:49:42;97406.97;;;-2.61;100.00
24306;BME280;12423;48.768;8.850;2023-01-30T03:51:43;97405.81;;;-2.51;100.00
24306;BME280;12423;48.768;8.850;2023-01-30T03:53:44;97417.81;;;-2.42;100.00
24306;BME280;12423;48.768;8.850;2023-01-30T03:55:46;97441.22;;;-2.37;100.00
24306;BME280;12423;48.768;8.850;2023-01-30T03:57:47;97455.06;;;-2.34;100.00
24306;BME280;12423;48.768;8.850;2023-01-30T03:59:48;97445.06;;;-2.19;100.00
24306;BME280;12423;48.768;8.850;2023-01-30T04:01:50;97438.13;;;-2.20;100.00
24306;BME280;12423;48.768;8.850;2023-01-30T04:03:51;97448.31;;;-2.11;100.00
24306;BME280;12423;48.768;8.850;2023-01-30T04:05:53;97443.16;;;-2.13;100.00
24306;BME280;12423;48.768;8.850;2023-01-30T04:07:58;97456.25;;;-2.13;100.00
24306;BME280;12423;48.768;8.850;2023-01-30T04:09:59;97453.91;;;-2.24;100.00
24306;BME280;12423;48.768;8.850;2023-01-30T04:12:00;97459.94;;;-2.22;100.00
24306;BME280;12423;48.768;8.850;2023-01-30T04:14:06;97462.66;;;-2.25;100.00
24306;BME280;12423;48.768;8.850;2023-01-30T04:16:25;97460.19;;;-2.29;100.00
24306;BME280;12423;48.768;8.850;2023-01-30T04:18:55;97467.06;;;-2.27;100.00
24306;BME280;12423;48.768;8.850;2023-01-30T04:20:58;97469.69;;;-2.27;100.00
24306;BME280;12423;48.768;8.850;2023-01-30T04:23:07;97452.22;;;-2.26;100.00
24306;BME280;12423;48.768;8.850;2023-01-30T04:25:09;97458.13;;;-2.19;100.00
24306;BME280;12423;48.768;8.850;2023-01-30T04:27:10;97456.28;;;-2.14;100.00
24306;BME280;12423;48.768;8.850;2023-01-30T04:29:19;97451.88;;;-2.14;100.00
24306;BME280;12423;48.768;8.850;2023-01-30T04:31:23;97451.69;;;-2.06;100.00
24306;BME280;12423;48.768;8.850;2023-01-30T04:33:35;97458.41;;;-1.97;100.00
24306;BME280;12423;48.768;8.850;2023-01-30T04:35:38;97459.03;;;-1.89;100.00
24306;BME280;12423;48.768;8.850;2023-01-30T04:37:39;97453.66;;;-1.84;100.00
24306;BME280;12423;48.768;8.850;2023-01-30T04:39:41;97444.97;;;-1.87;100.00
24306;BME280;12423;48.768;8.850;2023-01-30T04:41:42;97451.72;;;-1.78;100.00
24306;BME280;12423;48.768;8.850;2023-01-30T04:43:43;97447.31;;;-1.77;100.00
24306;BME280;12423;48.768;8.850;2023-01-30T04:45:57;97436.09;;;-1.81;100.00
24306;BME280;12423;48.768;8.850;2023-01-30T04:47:58;97428.31;;;-1.84;100.00
24306;BME280;12423;48.768;8.850;2023-01-30T04:49:59;97437.78;;;-1.80;100.00
24306;BME280;12423;48.768;8.850;2023-01-30T04:52:00;97445.59;;;-1.78;100.00
24306;BME280;12423;48.768;8.850;2023-01-30T04:54:01;97442.13;;;-1.79;100.00
24306;BME280;12423;48.768;8.850;2023-01-30T04:56:02;97443.81;;;-1.76;100.00
24306;BME280;12423;48.768;8.850;2023-01-30T04:58:03;97442.81;;;-1.72;100.00
24306;BME280;12423;48.768;8.850;2023-01-30T05:00:05;97436.63;;;-1.70;100.00
24306;BME280;12423;48.768;8.850;2023-01-30T05:02:09;97436.50;;;-1.65;100.00
24306;BME280;12423;48.768;8.850;2023-01-30T05:04:10;97436.22;;;-1.57;100.00
24306;BME280;12423;48.768;8.850;2023-01-30T05:06:11;97433.69;;;-1.60;100.00
24306;BME280;12423;48.768;8.850;2023-01-30T05:08:12;97440.94;;;-1.69;100.00
24306;BME280;12423;48.768;8.850;2023-01-30T05:10:16;97435.25;;;-1.53;100.00
24306;BME280;12423;48.768;8.850;2023-01-30T05:12:17;97423.03;;;-1.54;100.00
24306;BME280;12423;48.768;8.850;2023-01-30T05:14:18;97420.31;;;-1.51;100.00
24306;BME280;12423;48.768;8.850;2023-01-30T05:16:20;97415.09;;;-1.51;100.00
24306;BME280;12423;48.768;8.850;2023-01-30T05:18:22;97404.66;;;-1.53;100.00
24306;BME280;12423;48.768;8.850;2023-01-30T05:20:23;97400.34;;;-1.55;100.00
24306;BME280;12423;48.768;8.850;2023-01-30T05:22:24;97390.66;;;-1.52;100.00
24306;BME280;12423;48.768;8.850;2023-01-30T05:24:25;97395.22;;;-1.58;100.00
24306;BME280;12423;48.768;8.850;2023-01-30T05:26:26;97385.56;;;-1.56;100.00
24306;BME280;12423;48.768;8.850;2023-01-30T05:28:27;97393.06;;;-1.45;100.00
24306;BME280;12423;48.768;8.850;2023-01-30T05:30:28;97391.22;;;-1.42;100.00
24306;BME280;12423;48.768;8.850;2023-01-30T05:32:29;97393.16;;;-1.49;100.00
24306;BME280;12423;48.768;8.850;2023-01-30T05:34:30;97388.84;;;-1.50;100.00
24306;BME280;12423;48.768;8.850;2023-01-30T05:36:31;97390.34;;;-1.42;100.00
24306;BME280;12423;48.768;8.850;2023-01-30T05:38:32;97381.88;;;-1.51;100.00
24306;BME280;12423;48.768;8.850;2023-01-30T05:40:33;97378.53;;;-1.56;100.00
24306;BME280;12423;48.768;8.850;2023-01-30T05:42:34;97382.84;;;-1.53;100.00
24306;BME280;12423;48.768;8.850;2023-01-30T05:44:35;97385.13;;;-1.44;100.00
24306;BME280;12423;48.768;8.850;2023-01-30T05:46:36;97392.09;;;-1.43;100.00
24306;BME280;12423;48.768;8.850;2023-01-30T05:48:37;97396.19;;;-1.34;100.00
24306;BME280;12423;48.768;8.850;2023-01-30T05:50:38;97396.22;;;-1.36;100.00
24306;BME280;12423;48.768;8.850;2023-01-30T05:52:40;97390.34;;;-1.42;100.00
24306;BME280;12423;48.768;8.850;2023-01-30T05:54:41;97391.09;;;-1.39;100.00
24306;BME280;12423;48.768;8.850;2023-01-30T05:56:42;97384.91;;;-1.36;100.00
24306;BME280;12423;48.768;8.850;2023-01-30T05:58:43;97387.53;;;-1.36;100.00
24306;BME280;12423;48.768;8.850;2023-01-30T06:00:49;97381.53;;;-1.40;100.00
24306;BME280;12423;48.768;8.850;2023-01-30T06:02:50;97379.19;;;-1.49;100.00
24306;BME280;12423;48.768;8.850;2023-01-30T06:04:51;97377.59;;;-1.53;100.00
24306;BME280;12423;48.768;8.850;2023-01-30T06:06:52;97388.22;;;-1.58;100.00
24306;BME280;12423;48.768;8.850;2023-01-30T06:08:54;97392.34;;;-1.51;100.00
24306;BME280;12423;48.768;8.850;2023-01-30T06:11:03;97389.22;;;-1.62;100.00
24306;BME280;12423;48.768;8.850;2023-01-30T06:13:05;97396.97;;;-1.59;100.00
24306;BME280;12423;48.768;8.850;2023-01-30T06:15:06;97381.13;;;-1.54;100.00
24306;BME280;12423;48.768;8.850;2023-01-30T06:17:07;97377.50;;;-1.50;100.00
24306;BME280;12423;48.768;8.850;2023-01-30T06:19:09;97357.25;;;-1.45;100.00
24306;BME280;12423;48.768;8.850;2023-01-30T06:21:10;97352.28;;;-1.54;100.00
24306;BME280;12423;48.768;8.850;2023-01-30T06:23:11;97350.28;;;-1.46;100.00
24306;BME280;12423;48.768;8.850;2023-01-30T06:25:12;97358.28;;;-1.51;100.00
24306;BME280;12423;48.768;8.850;2023-01-30T06:27:13;97352.09;;;-1.48;100.00
24306;BME280;12423;48.768;8.850;2023-01-30T06:29:14;97353.00;;;-1.49;100.00
24306;BME280;12423;48.768;8.850;2023-01-30T06:31:15;97356.63;;;-1.53;100.00
24306;BME280;12423;48.768;8.850;2023-01-30T06:33:16;97364.28;;;-1.47;100.00
24306;BME280;12423;48.768;8.850;2023-01-30T06:35:17;97373.91;;;-1.48;100.00
24306;BME280;12423;48.768;8.850;2023-01-30T06:37:19;97369.56;;;-1.49;100.00
24306;BME280;12423;48.768;8.850;2023-01-30T06:39:20;97358.84;;;-1.41;100.00
24306;BME280;12423;48.768;8.850;2023-01-30T06:41:20;97360.84;;;-1.49;100.00
24306;BME280;12423;48.768;8.850;2023-01-30T06:43:21;97354.81;;;-1.51;100.00
24306;BME280;12423;48.768;8.850;2023-01-30T06:45:22;97366.03;;;-1.48;100.00
24306;BME280;12423;48.768;8.850;2023-01-30T06:47:23;97362.44;;;-1.43;100.00
24306;BME280;12423;48.768;8.850;2023-01-30T06:49:24;97370.34;;;-1.45;100.00
24306;BME280;12423;48.768;8.850;2023-01-30T06:51:25;97357.94;;;-1.40;100.00
24306;BME280;12423;48.768;8.850;2023-01-30T06:53:27;97344.78;;;-1.38;100.00
24306;BME280;12423;48.768;8.850;2023-01-30T06:55:31;97351.03;;;-1.42;100.00
24306;BME280;12423;48.768;8.850;2023-01-30T06:57:34;97338.72;;;-1.40;100.00
24306;BME280;12423;48.768;8.850;2023-01-30T06:59:35;97338.56;;;-1.36;100.00
24306;BME280;12423;48.768;8.850;2023-01-30T07:01:36;97346.94;;;-1.24;100.00
24306;BME280;12423;48.768;8.850;2023-01-30T07:03:38;97349.50;;;-1.23;100.00
24306;BME280;12423;48.768;8.850;2023-01-30T07:05:40;97354.75;;;-1.23;100.00
24306;BME280;12423;48.768;8.850;2023-01-30T07:07:41;97364.06;;;-1.14;100.00
24306;BME280;12423;48.768;8.850;2023-01-30T07:09:42;97369.31;;;-1.14;100.00
24306;BME280;12423;48.768;8.850;2023-01-30T07:11:44;97369.78;;;-1.03;100.00
24306;BME280;12423;48.768;8.850;2023-01-30T07:13:46;97371.56;;;-1.03;100.00
24306;BME280;12423;48.768;8.850;2023-01-30T07:15:47;97382.06;;;-1.03;100.00
24306;BME280;12423;48.768;8.850;2023-01-30T07:17:48;97381.97;;;-1.00;100.00
24306;BME280;12423;48.768;8.850;2023-01-30T07:19:49;97392.28;;;-0.96;100.00
24306;BME280;12423;48.768;8.850;2023-01-30T07:21:50;97398.34;;;-0.94;100.00
24306;BME280;12423;48.768;8.850;2023-01-30T07:23:52;97401.75;;;-0.91;100.00
24306;BME280;12423;48.768;8.850;2023-01-30T07:25:52;97393.03;;;-0.92;100.00
24306;BME280;12423;48.768;8.850;2023-01-30T07:27:59;97394.59;;;-0.86;100.00
24306;BME280;12423;48.768;8.850;2023-01-30T07:30:00;97387.50;;;-0.84;100.00
24306;BME280;12423;48.768;8.850;2023-01-30T07:32:02;97394.28;;;-0.77;100.00
24306;BME280;12423;48.768;8.850;2023-01-30T07:34:03;97406.25;;;-0.70;100.00
24306;BME280;12423;48.768;8.850;2023-01-30T07:36:04;97392.34;;;-0.72;100.00
24306;BME280;12423;48.768;8.850;2023-01-30T07:38:05;97396.59;;;-0.69;100.00
24306;BME280;12423;48.768;8.850;2023-01-30T07:40:06;97391.78;;;-0.57;100.00
24306;BME280;12423;48.768;8.850;2023-01-30T07:42:08;97390.78;;;-0.52;100.00
24306;BME280;12423;48.768;8.850;2023-01-30T07:44:09;97391.72;;;-0.55;100.00
24306;BME280;12423;48.768;8.850;2023-01-30T07:46:10;97412.47;;;-0.47;100.00
24306;BME280;12423;48.768;8.850;2023-01-30T07:48:13;97408.00;;;-0.45;100.00
24306;BME280;12423;48.768;8.850;2023-01-30T07:50:15;97418.41;;;-0.42;100.00
24306;BME280;12423;48.768;8.850;2023-01-30T07:52:16;97421.97;;;-0.45;100.00
24306;BME280;12423;48.768;8.850;2023-01-30T07:54:17;97418.34;;;-0.41;100.00
24306;BME280;12423;48.768;8.850;2023-01-30T07:56:18;97419.19;;;-0.40;100.00
24306;BME280;12423;48.768;8.850;2023-01-30T07:58:21;97404.19;;;-0.37;100.00
24306;BME280;12423;48.768;8.850;2023-01-30T08:00:22;97393.41;;;-0.29;100.00
24306;BME280;12423;48.768;8.850;2023-01-30T08:02:23;97391.84;;;-0.33;100.00
24306;BME280;12423;48.768;8.850;2023-01-30T08:04:25;97380.50;;;-0.35;100.00
24306;BME280;12423;48.768;8.850;2023-01-30T08:06:26;97379.56;;;-0.32;100.00
24306;BME280;12423;48.768;8.850;2023-01-30T08:08:27;97398.81;;;-0.33;100.00
24306;BME280;12423;48.768;8.850;2023-01-30T08:10:28;97402.91;;;-0.25;100.00
24306;BME280;12423;48.768;8.850;2023-01-30T08:12:28;97409.97;;;-0.27;100.00
24306;BME280;12423;48.768;8.850;2023-01-30T08:14:29;97420.34;;;-0.24;100.00
24306;BME280;12423;48.768;8.850;2023-01-30T08:16:30;97418.66;;;-0.25;100.00
24306;BME280;12423;48.768;8.850;2023-01-30T08:18:32;97431.47;;;-0.17;100.00
24306;BME280;12423;48.768;8.850;2023-01-30T08:20:34;97442.63;;;-0.10;100.00
24306;BME280;12423;48.768;8.850;2023-01-30T08:22:35;97429.44;;;-0.09;100.00
24306;BME280;12423;48.768;8.850;2023-01-30T08:24:36;97415.13;;;0.00;100.00
24306;BME280;12423;48.768;8.850;2023-01-30T08:26:37;97405.50;;;-0.01;100.00
24306;BME280;12423;48.768;8.850;2023-01-30T08:28:38;97393.41;;;-0.05;100.00
24306;BME280;12423;48.768;8.850;2023-01-30T08:30:40;97387.00;;;-0.22;100.00
24306;BME280;12423;48.768;8.850;2023-01-30T08:32:41;97387.88;;;-0.21;100.00
24306;BME280;12423;48.768;8.850;2023-01-30T08:34:42;97383.59;;;-0.24;100.00
24306;BME280;12423;48.768;8.850;2023-01-30T08:36:43;97386.78;;;-0.15;100.00
24306;BME280;12423;48.768;8.850;2023-01-30T08:38:46;97379.53;;;-0.09;100.00
24306;BME280;12423;48.768;8.850;2023-01-30T08:40:47;97368.84;;;-0.04;100.00
24306;BME280;12423;48.768;8.850;2023-01-30T08:42:48;97382.03;;;-0.06;100.00
24306;BME280;12423;48.768;8.850;2023-01-30T08:44:49;97366.91;;;0.01;100.00
24306;BME280;12423;48.768;8.850;2023-01-30T08:46:50;97369.69;;;-0.04;100.00
24306;BME280;12423;48.768;8.850;2023-01-30T08:48:51;97363.44;;;0.01;100.00
24306;BME280;12423;48.768;8.850;2023-01-30T08:50:53;97359.59;;;0.09;100.00
24306;BME280;12423;48.768;8.850;2023-01-30T08:52:54;97359.34;;;0.15;100.00
24306;BME280;12423;48.768;8.850;2023-01-30T08:54:55;97372.19;;;0.23;100.00
24306;BME280;12423;48.768;8.850;2023-01-30T08:56:56;97374.94;;;0.42;100.00
24306;BME280;12423;48.768;8.850;2023-01-30T08:58:57;97359.28;;;0.39;100.00
24306;BME280;12423;48.768;8.850;2023-01-30T09:01:04;97360.50;;;0.52;100.00
24306;BME280;12423;48.768;8.850;2023-01-30T09:03:05;97354.34;;;0.53;100.00
24306;BME280;12423;48.768;8.850;2023-01-30T09:05:06;97342.03;;;0.54;100.00
24306;BME280;12423;48.768;8.850;2023-01-30T09:07:08;97333.66;;;0.66;100.00
24306;BME280;12423;48.768;8.850;2023-01-30T09:09:09;97329.00;;;0.73;100.00
24306;BME280;12423;48.768;8.850;2023-01-30T09:11:10;97335.09;;;0.73;100.00
24306;BME280;12423;48.768;8.850;2023-01-30T09:13:12;97330.69;;;0.74;100.00
24306;BME280;12423;48.768;8.850;2023-01-30T09:15:13;97330.78;;;0.93;100.00
24306;BME280;12423;48.768;8.850;2023-01-30T09:17:14;97309.31;;;1.02;100.00
24306;BME280;12423;48.768;8.850;2023-01-30T09:19:14;97306.63;;;1.24;100.00
24306;BME280;12423;48.768;8.850;2023-01-30T09:21:15;97324.47;;;1.37;100.00
24306;BME280;12423;48.768;8.850;2023-01-30T09:23:17;97330.06;;;1.50;100.00
24306;BME280;12423;48.768;8.850;2023-01-30T09:25:18;97325.22;;;1.59;100.00
24306;BME280;12423;48.768;8.850;2023-01-30T09:27:19;97341.03;;;1.59;100.00
24306;BME280;12423;48.768;8.850;2023-01-30T09:29:20;97336.78;;;1.57;100.00
24306;BME280;12423;48.768;8.850;2023-01-30T09:31:21;97331.41;;;1.58;100.00
24306;BME280;12423;48.768;8.850;2023-01-30T09:33:22;97326.94;;;1.79;100.00
24306;BME280;12423;48.768;8.850;2023-01-30T09:35:23;97334.50;;;1.87;100.00
24306;BME280;12423;48.768;8.850;2023-01-30T09:37:23;97330.78;;;1.91;100.00
24306;BME280;12423;48.768;8.850;2023-01-30T09:39:25;97328.66;;;1.99;100.00
24306;BME280;12423;48.768;8.850;2023-01-30T09:41:39;97335.97;;;2.12;100.00
24306;BME280;12423;48.768;8.850;2023-01-30T09:44:13;97338.66;;;2.29;100.00
24306;BME280;12423;48.768;8.850;2023-01-30T09:46:54;97337.47;;;2.54;100.00
24306;BME280;12423;48.768;8.850;2023-01-30T09:49:28;97322.75;;;2.85;100.00
24306;BME280;12423;48.768;8.850;2023-01-30T09:55:56;97308.16;;;2.95;100.00
24306;BME280;12423;48.768;8.850;2023-01-30T09:57:59;97305.31;;;2.82;100.00
24306;BME280;12423;48.768;8.850;2023-01-30T10:00:21;97309.41;;;2.70;100.00
24306;BME280;12423;48.768;8.850;2023-01-30T10:02:33;97288.81;;;2.42;100.00
24306;BME280;12423;48.768;8.850;2023-01-30T10:04:39;97281.00;;;2.58;100.00
24306;BME280;12423;48.768;8.850;2023-01-30T10:06:53;97271.78;;;2.67;100.00
24306;BME280;12423;48.768;8.850;2023-01-30T10:09:11;97287.72;;;2.99;100.00
24306;BME280;12423;48.768;8.850;2023-01-30T10:16:22;97275.94;;;3.06;100.00
24306;BME280;12423;48.768;8.850;2023-01-30T10:20:48;97274.47;;;3.00;100.00
24306;BME280;12423;48.768;8.850;2023-01-30T10:25:32;97279.78;;;2.48;100.00
24306;BME280;12423;48.768;8.850;2023-01-30T10:27:34;97264.47;;;2.37;100.00
24306;BME280;12423;48.768;8.850;2023-01-30T10:29:39;97277.44;;;2.42;100.00
24306;BME280;12423;48.768;8.850;2023-01-30T10:31:44;97275.25;;;2.50;100.00
24306;BME280;12423;48.768;8.850;2023-01-30T10:36:07;97266.50;;;2.67;100.00
24306;BME280;12423;48.768;8.850;2023-01-30T10:40:20;97264.75;;;2.31;100.00
24306;BME280;12423;48.768;8.850;2023-01-30T10:42:45;97265.31;;;2.37;100.00
24306;BME280;12423;48.768;8.850;2023-01-30T10:44:48;97249.66;;;2.34;100.00
24306;BME280;12423;48.768;8.850;2023-01-30T10:49:39;97254.47;;;2.26;100.00
24306;BME280;12423;48.768;8.850;2023-01-30T10:53:55;97252.28;;;2.52;100.00
24306;BME280;12423;48.768;8.850;2023-01-30T10:56:04;97257.81;;;2.30;100.00
24306;BME280;12423;48.768;8.850;2023-01-30T10:58:22;97266.34;;;2.35;100.00
24306;BME280;12423;48.768;8.850;2023-01-30T11:00:29;97261.22;;;2.32;100.00
24306;BME280;12423;48.768;8.850;2023-01-30T11:04:59;97257.88;;;2.46;100.00
24306;BME280;12423;48.768;8.850;2023-01-30T11:07:04;97266.25;;;2.54;100.00
24306;BME280;12423;48.768;8.850;2023-01-30T11:09:05;97260.69;;;2.43;100.00
24306;BME280;12423;48.768;8.850;2023-01-30T11:11:25;97261.31;;;2.48;100.00
24306;BME280;12423;48.768;8.850;2023-01-30T11:13:28;97265.16;;;2.40;100.00
24306;BME280;12423;48.768;8.850;2023-01-30T11:15:40;97262.06;;;2.50;100.00
24306;BME280;12423;48.768;8.850;2023-01-30T11:17:43;97283.66;;;2.58;100.00
24306;BME280;12423;48.768;8.850;2023-01-30T11:19:53;97264.41;;;2.38;100.00
24306;BME280;12423;48.768;8.850;2023-01-30T11:22:00;97263.78;;;2.33;100.00
24306;BME280;12423;48.768;8.850;2023-01-30T11:24:13;97251.75;;;2.28;100.00
24306;BME280;12423;48.768;8.850;2023-01-30T11:26:35;97250.28;;;2.39;100.00
24306;BME280;12423;48.768;8.850;2023-01-30T11:28:40;97254.22;;;2.31;100.00
24306;BME280;12423;48.768;8.850;2023-01-30T11:30:43;97257.94;;;2.27;100.00
24306;BME280;12423;48.768;8.850;2023-01-30T11:32:49;97243.53;;;2.34;100.00
24306;BME280;12423;48.768;8.850;2023-01-30T11:37:42;97256.78;;;2.15;100.00
24306;BME280;12423;48.768;8.850;2023-01-30T11:39:49;97257.97;;;2.08;100.00
24306;BME280;12423;48.768;8.850;2023-01-30T11:44:00;97258.44;;;1.98;100.00
24306;BME280;12423;48.768;8.850;2023-01-30T11:46:01;97247.97;;;1.97;100.00
24306;BME280;12423;48.768;8.850;2023-01-30T11:48:09;97248.06;;;1.95;100.00
24306;BME280;12423;48.768;8.850;2023-01-30T11:50:16;97258.13;;;2.05;100.00
24306;BME280;12423;48.768;8.850;2023-01-30T11:52:19;97243.97;;;2.07;100.00
24306;BME280;12423;48.768;8.850;2023-01-30T11:54:34;97261.66;;;2.22;100.00
24306;BME280;12423;48.768;8.850;2023-01-30T11:56:39;97253.53;;;2.27;100.00